createdAt,value
2016-08-31T00:00:23.294Z,0
2016-08-31T00:01:23.931Z,0
2016-08-31T00:02:23.192Z,0
2016-08-31T00:03:23.852Z,0
2016-08-31T00:04:25.553Z,0
2016-08-31T00:05:23.784Z,0
2016-08-31T00:06:24.466Z,0
2016-08-31T00:07:23.730Z,0
2016-08-31T00:08:23.684Z,0
2016-08-31T00:09:24.367Z,0
2016-08-31T00:10:22.940Z,0
2016-08-31T00:11:23.598Z,0
2016-08-31T00:12:24.266Z,0
2016-08-31T00:13:23.543Z,0
2016-08-31T00:14:24.214Z,0
2016-08-31T00:15:23.474Z,0
2016-08-31T00:16:23.440Z,0
2016-08-31T00:17:24.112Z,0
2016-08-31T00:18:23.395Z,0
2016-08-31T00:19:22.656Z,0
2016-08-31T00:20:23.630Z,0
2016-08-31T00:21:22.593Z,0
2016-08-31T00:22:23.965Z,0
2016-08-31T00:23:23.235Z,0
2016-08-31T00:24:23.205Z,0
2016-08-31T00:25:23.177Z,0
2016-08-31T00:26:21.748Z,0
2016-08-31T00:27:23.804Z,0
2016-08-31T00:28:23.077Z,0
2016-08-31T00:29:22.350Z,0
2016-08-31T00:30:23.010Z,0
2016-08-31T00:31:22.984Z,0
2016-08-31T00:32:22.951Z,0
2016-08-31T00:33:23.623Z,0
2016-08-31T00:34:22.894Z,0
2016-08-31T00:35:23.557Z,0
2016-08-31T00:36:22.131Z,0
2016-08-31T00:37:22.799Z,0
2016-08-31T00:38:23.466Z,0
2016-08-31T00:39:23.430Z,0
2016-08-31T00:40:22.710Z,0
2016-08-31T00:41:23.366Z,0
2016-08-31T00:42:21.249Z,0
2016-08-31T00:43:23.311Z,0
2016-08-31T00:44:21.882Z,0
2016-08-31T00:45:22.550Z,0
2016-08-31T00:46:21.126Z,0
2016-08-31T00:47:21.092Z,0
2016-08-31T00:48:23.174Z,0
2016-08-31T00:49:22.426Z,0
2016-08-31T00:50:22.938Z,0
2016-08-31T00:51:23.061Z,0
2016-08-31T00:52:20.941Z,0
2016-08-31T00:53:20.917Z,0
2016-08-31T00:54:22.271Z,0
2016-08-31T00:55:21.537Z,0
2016-08-31T00:56:22.906Z,0
2016-08-31T00:57:21.476Z,0
2016-08-31T00:58:22.154Z,0
2016-08-31T00:59:22.817Z,0
2016-08-31T01:00:20.688Z,0
2016-08-31T01:01:22.051Z,0
2016-08-31T01:02:21.329Z,0
2016-08-31T01:03:21.987Z,0
2016-08-31T01:04:22.667Z,0
2016-08-31T01:05:21.931Z,0
2016-08-31T01:06:21.904Z,0
2016-08-31T01:07:22.572Z,0
2016-08-31T01:08:21.841Z,0
2016-08-31T01:09:21.108Z,0
2016-08-31T01:10:22.711Z,0
2016-08-31T01:11:22.437Z,0
2016-08-31T01:12:21.731Z,0
2016-08-31T01:13:21.679Z,0
2016-08-31T01:14:22.350Z,0
2016-08-31T01:15:22.613Z,0
2016-08-31T01:16:21.579Z,0
2016-08-31T01:17:20.862Z,0
2016-08-31T01:18:21.528Z,0
2016-08-31T01:19:21.487Z,0
2016-08-31T01:20:20.790Z,0
2016-08-31T01:21:20.043Z,0
2016-08-31T01:22:21.403Z,0
2016-08-31T01:23:21.373Z,0
2016-08-31T01:24:21.343Z,0
2016-08-31T01:25:20.863Z,0
2016-08-31T01:26:20.592Z,0
2016-08-31T01:27:21.940Z,0
2016-08-31T01:28:20.519Z,0
2016-08-31T01:29:20.526Z,0
2016-08-31T01:30:21.898Z,0
2016-08-31T01:31:21.118Z,0
2016-08-31T01:32:21.779Z,0
2016-08-31T01:33:20.375Z,0
2016-08-31T01:34:21.036Z,0
2016-08-31T01:35:20.360Z,0
2016-08-31T01:36:20.960Z,0
2016-08-31T01:37:21.626Z,0
2016-08-31T01:38:21.607Z,0
2016-08-31T01:39:21.571Z,0
2016-08-31T01:40:20.537Z,0
2016-08-31T01:41:21.526Z,0
2016-08-31T01:42:20.776Z,0
2016-08-31T01:43:20.051Z,0
2016-08-31T01:44:20.724Z,0
2016-08-31T01:45:20.772Z,0
2016-08-31T01:46:19.260Z,0
2016-08-31T01:47:20.629Z,0
2016-08-31T01:48:20.608Z,0
2016-08-31T01:49:20.567Z,0
2016-08-31T01:50:21.221Z,0
2016-08-31T01:51:19.805Z,0
2016-08-31T01:52:21.179Z,0
2016-08-31T01:53:20.439Z,0
2016-08-31T01:54:21.104Z,0
2016-08-31T01:55:20.457Z,0
2016-08-31T01:56:21.040Z,0
2016-08-31T01:57:20.311Z,0
2016-08-31T01:58:20.271Z,0
2016-08-31T01:59:20.949Z,0
2016-08-31T02:00:20.219Z,0
2016-08-31T02:01:20.883Z,0
2016-08-31T02:02:20.163Z,0
2016-08-31T02:03:20.123Z,0
2016-08-31T02:04:20.101Z,0
2016-08-31T02:05:20.559Z,0
2016-08-31T02:06:19.324Z,0
2016-08-31T02:07:19.303Z,0
2016-08-31T02:08:19.273Z,0
2016-08-31T02:09:20.641Z,0
2016-08-31T02:10:19.908Z,0
2016-08-31T02:11:19.868Z,0
2016-08-31T02:12:19.841Z,0
2016-08-31T02:13:19.821Z,0
2016-08-31T02:14:19.775Z,0
2016-08-31T02:15:20.438Z,0
2016-08-31T02:16:20.409Z,0
2016-08-31T02:17:20.376Z,0
2016-08-31T02:18:18.259Z,0
2016-08-31T02:19:18.919Z,0
2016-08-31T02:20:19.328Z,0
2016-08-31T02:21:19.557Z,0
2016-08-31T02:22:20.219Z,0
2016-08-31T02:23:19.494Z,0
2016-08-31T02:24:19.460Z,0
2016-08-31T02:25:19.484Z,0
2016-08-31T02:26:19.422Z,0
2016-08-31T02:27:19.362Z,0
2016-08-31T02:28:19.341Z,0
2016-08-31T02:29:19.309Z,0
2016-08-31T02:30:20.014Z,0
2016-08-31T02:31:18.559Z,0
2016-08-31T02:32:19.204Z,0
2016-08-31T02:33:19.874Z,0
2016-08-31T02:34:19.144Z,0
2016-08-31T02:35:19.191Z,0
2016-08-31T02:36:19.777Z,0
2016-08-31T02:37:18.359Z,0
2016-08-31T02:38:18.337Z,0
2016-08-31T02:39:18.990Z,0
2016-08-31T02:40:18.956Z,0
2016-08-31T02:41:18.948Z,0
2016-08-31T02:42:19.588Z,0
2016-08-31T02:43:16.771Z,0
2016-08-31T02:44:19.524Z,0
2016-08-31T02:45:19.580Z,0
2016-08-31T02:46:18.087Z,0
2016-08-31T02:47:19.433Z,0
2016-08-31T02:48:18.705Z,0
2016-08-31T02:49:18.667Z,0
2016-08-31T02:50:19.832Z,0
2016-08-31T02:51:18.606Z,0
2016-08-31T02:52:19.271Z,0
2016-08-31T02:53:18.551Z,0
2016-08-31T02:54:19.218Z,0
2016-08-31T02:55:17.782Z,0
2016-08-31T02:56:19.148Z,0
2016-08-31T02:57:17.723Z,0
2016-08-31T02:58:19.090Z,0
2016-08-31T02:59:18.348Z,0
2016-08-31T03:00:18.341Z,0
2016-08-31T03:01:16.902Z,0
2016-08-31T03:02:18.954Z,0
2016-08-31T03:03:18.243Z,0
2016-08-31T03:04:18.907Z,0
2016-08-31T03:05:18.960Z,0
2016-08-31T03:06:18.132Z,0
2016-08-31T03:07:17.405Z,0
2016-08-31T03:08:18.758Z,0
2016-08-31T03:09:18.727Z,0
2016-08-31T03:10:19.110Z,0
2016-08-31T03:11:17.974Z,0
2016-08-31T03:12:17.944Z,0
2016-08-31T03:13:17.904Z,0
2016-08-31T03:14:17.873Z,0
2016-08-31T03:15:17.145Z,0
2016-08-31T03:16:17.108Z,0
2016-08-31T03:17:17.789Z,0
2016-08-31T03:18:18.438Z,0
2016-08-31T03:19:17.025Z,0
2016-08-31T03:20:18.162Z,0
2016-08-31T03:21:18.344Z,0
2016-08-31T03:22:16.923Z,0
2016-08-31T03:23:17.579Z,0
2016-08-31T03:24:17.547Z,0
2016-08-31T03:25:16.818Z,0
2016-08-31T03:26:17.486Z,0
2016-08-31T03:27:18.155Z,0
2016-08-31T03:28:17.420Z,0
2016-08-31T03:29:15.992Z,0
2016-08-31T03:30:17.351Z,0
2016-08-31T03:31:17.321Z,0
2016-08-31T03:32:17.985Z,0
2016-08-31T03:33:16.557Z,0
2016-08-31T03:34:16.530Z,0
2016-08-31T03:35:16.540Z,0
2016-08-31T03:36:17.166Z,0
2016-08-31T03:37:17.835Z,0
2016-08-31T03:38:16.398Z,0
2016-08-31T03:39:16.377Z,0
2016-08-31T03:40:17.180Z,0
2016-08-31T03:41:16.993Z,0
2016-08-31T03:42:17.661Z,0
2016-08-31T03:43:16.936Z,0
2016-08-31T03:44:16.207Z,0
2016-08-31T03:45:16.871Z,0
2016-08-31T03:46:17.534Z,0
2016-08-31T03:47:16.799Z,0
2016-08-31T03:48:16.775Z,0
2016-08-31T03:49:15.348Z,0
2016-08-31T03:50:16.715Z,0
2016-08-31T03:51:16.004Z,0
2016-08-31T03:52:15.257Z,0
2016-08-31T03:53:17.308Z,0
2016-08-31T03:54:16.585Z,0
2016-08-31T03:55:15.851Z,0
2016-08-31T03:56:15.823Z,0
2016-08-31T03:57:16.475Z,0
2016-08-31T03:58:17.144Z,0
2016-08-31T03:59:15.717Z,0
2016-08-31T04:00:14.992Z,0
2016-08-31T04:01:16.357Z,0
2016-08-31T04:02:16.317Z,0
2016-08-31T04:03:16.296Z,0
2016-08-31T04:04:16.255Z,0
2016-08-31T04:05:14.825Z,0
2016-08-31T04:06:15.496Z,0
2016-08-31T04:07:16.146Z,0
2016-08-31T04:08:16.819Z,0
2016-08-31T04:09:14.691Z,0
2016-08-31T04:10:15.356Z,0
2016-08-31T04:11:16.034Z,0
2016-08-31T04:12:16.679Z,0
2016-08-31T04:13:15.252Z,0
2016-08-31T04:14:16.619Z,0
2016-08-31T04:15:15.890Z,0
2016-08-31T04:16:15.855Z,0
2016-08-31T04:17:16.529Z,0
2016-08-31T04:18:15.101Z,0
2016-08-31T04:19:16.463Z,0
2016-08-31T04:20:15.036Z,0
2016-08-31T04:21:15.690Z,0
2016-08-31T04:22:14.970Z,0
2016-08-31T04:23:14.253Z,0
2016-08-31T04:24:16.294Z,0
2016-08-31T04:25:15.565Z,0
2016-08-31T04:26:30.534Z,0
2016-08-31T04:27:14.799Z,0
2016-08-31T04:28:15.468Z,0
2016-08-31T04:29:15.438Z,0
2016-08-31T04:30:15.427Z,0
2016-08-31T04:31:15.378Z,0
2016-08-31T04:32:14.642Z,0
2016-08-31T04:33:13.907Z,0
2016-08-31T04:34:15.973Z,0
2016-08-31T04:35:14.916Z,0
2016-08-31T04:36:15.215Z,0
2016-08-31T04:37:15.173Z,0
2016-08-31T04:38:15.142Z,0
2016-08-31T04:39:15.109Z,0
2016-08-31T04:40:15.942Z,0
2016-08-31T04:41:15.755Z,5
2016-08-31T04:42:15.709Z,5
2016-08-31T04:43:14.981Z,5
2016-08-31T04:44:14.958Z,5
2016-08-31T04:45:14.943Z,5
2016-08-31T04:46:14.882Z,5
2016-08-31T04:47:14.849Z,5
2016-08-31T04:48:14.121Z,5
2016-08-31T04:49:14.788Z,10
2016-08-31T04:50:14.754Z,10
2016-08-31T04:51:12.645Z,10
2016-08-31T04:52:15.383Z,10
2016-08-31T04:53:15.353Z,10
2016-08-31T04:54:14.624Z,15
2016-08-31T04:55:15.795Z,15
2016-08-31T04:56:15.255Z,15
2016-08-31T04:57:15.243Z,15
2016-08-31T04:58:15.222Z,15
2016-08-31T04:59:14.459Z,20
2016-08-31T05:00:14.441Z,20
2016-08-31T05:01:15.109Z,20
2016-08-31T05:02:15.060Z,20
2016-08-31T05:03:15.045Z,25
2016-08-31T05:04:14.304Z,25
2016-08-31T05:05:14.968Z,25
2016-08-31T05:06:13.549Z,25
2016-08-31T05:07:13.515Z,30
2016-08-31T05:08:14.179Z,30
2016-08-31T05:09:14.174Z,30
2016-08-31T05:10:12.721Z,30
2016-08-31T05:11:13.379Z,35
2016-08-31T05:12:13.353Z,35
2016-08-31T05:13:12.622Z,35
2016-08-31T05:14:13.293Z,40
2016-08-31T05:15:13.263Z,40
2016-08-31T05:16:13.221Z,40
2016-08-31T05:17:14.608Z,45
2016-08-31T05:18:13.855Z,45
2016-08-31T05:19:13.127Z,45
2016-08-31T05:20:13.788Z,50
2016-08-31T05:21:13.765Z,50
2016-08-31T05:22:13.733Z,50
2016-08-31T05:23:11.613Z,50
2016-08-31T05:24:12.274Z,50
2016-08-31T05:25:12.239Z,55
2016-08-31T05:26:12.908Z,55
2016-08-31T05:27:13.572Z,50
2016-08-31T05:28:13.535Z,50
2016-08-31T05:29:12.810Z,55
2016-08-31T05:30:12.802Z,55
2016-08-31T05:31:12.736Z,60
2016-08-31T05:32:14.107Z,65
2016-08-31T05:33:12.681Z,65
2016-08-31T05:34:12.651Z,70
2016-08-31T05:35:13.641Z,70
2016-08-31T05:36:13.277Z,70
2016-08-31T05:37:12.562Z,70
2016-08-31T05:38:13.917Z,75
2016-08-31T05:39:12.506Z,75
2016-08-31T05:40:12.466Z,75
2016-08-31T05:41:12.428Z,75
2016-08-31T05:42:13.788Z,75
2016-08-31T05:43:12.374Z,75
2016-08-31T05:44:12.340Z,85
2016-08-31T05:45:13.082Z,85
2016-08-31T05:46:12.967Z,85
2016-08-31T05:47:13.645Z,85
2016-08-31T05:48:13.601Z,90
2016-08-31T05:49:12.880Z,85
2016-08-31T05:50:12.862Z,85
2016-08-31T05:51:13.507Z,90
2016-08-31T05:52:13.487Z,90
2016-08-31T05:53:12.059Z,95
2016-08-31T05:54:12.021Z,100
2016-08-31T05:55:13.621Z,100
2016-08-31T05:56:13.358Z,100
2016-08-31T05:57:12.648Z,100
2016-08-31T05:58:12.595Z,105
2016-08-31T05:59:13.346Z,110
2016-08-31T06:00:13.635Z,115
2016-08-31T06:01:13.192Z,120
2016-08-31T06:02:12.515Z,130
2016-08-31T06:03:12.444Z,135
2016-08-31T06:04:11.720Z,135
2016-08-31T06:05:12.546Z,135
2016-08-31T06:06:13.308Z,130
2016-08-31T06:07:12.323Z,135
2016-08-31T06:08:12.286Z,145
2016-08-31T06:09:11.557Z,155
2016-08-31T06:10:13.679Z,165
2016-08-31T06:11:12.202Z,175
2016-08-31T06:12:11.475Z,180
2016-08-31T06:13:11.436Z,190
2016-08-31T06:14:11.406Z,200
2016-08-31T06:15:13.260Z,210
2016-08-31T06:16:11.344Z,210
2016-08-31T06:17:11.346Z,215
2016-08-31T06:18:12.681Z,210
2016-08-31T06:19:14.071Z,215
2016-08-31T06:20:11.304Z,220
2016-08-31T06:21:11.196Z,230
2016-08-31T06:22:11.856Z,235
2016-08-31T06:23:11.134Z,240
2016-08-31T06:24:11.804Z,245
2016-08-31T06:25:13.501Z,260
2016-08-31T06:26:12.445Z,285
2016-08-31T06:27:11.704Z,305
2016-08-31T06:28:11.679Z,315
2016-08-31T06:29:12.347Z,335
2016-08-31T06:30:11.800Z,360
2016-08-31T06:31:10.885Z,415
2016-08-31T06:32:10.890Z,460
2016-08-31T06:33:10.835Z,480
2016-08-31T06:34:11.496Z,505
2016-08-31T06:35:11.063Z,565
2016-08-31T06:36:10.090Z,565
2016-08-31T06:37:09.319Z,525
2016-08-31T06:38:11.383Z,535
2016-08-31T06:39:11.357Z,590
2016-08-31T06:40:11.496Z,525
2016-08-31T06:41:11.302Z,580
2016-08-31T06:42:11.961Z,545
2016-08-31T06:43:10.537Z,535
2016-08-31T06:44:10.522Z,605
2016-08-31T06:45:10.707Z,755
2016-08-31T06:46:10.603Z,770
2016-08-31T06:47:10.927Z,680
2016-08-31T06:48:11.791Z,550
2016-08-31T06:49:11.776Z,655
2016-08-31T06:50:10.356Z,775
2016-08-31T06:51:10.313Z,760
2016-08-31T06:52:10.294Z,785
2016-08-31T06:53:10.963Z,860
2016-08-31T06:54:10.235Z,845
2016-08-31T06:55:11.635Z,895
2016-08-31T06:56:10.892Z,905
2016-08-31T06:57:10.159Z,865
2016-08-31T06:58:10.835Z,865
2016-08-31T06:59:10.805Z,900
2016-08-31T07:00:10.377Z,910
2016-08-31T07:01:10.764Z,810
2016-08-31T07:02:10.028Z,670
2016-08-31T07:03:10.711Z,685
2016-08-31T07:04:10.723Z,705
2016-08-31T07:05:10.695Z,785
2016-08-31T07:06:09.937Z,795
2016-08-31T07:07:09.924Z,885
2016-08-31T07:08:10.588Z,925
2016-08-31T07:09:10.566Z,915
2016-08-31T07:10:10.541Z,845
2016-08-31T07:11:10.526Z,815
2016-08-31T07:12:11.191Z,760
2016-08-31T07:13:10.473Z,710
2016-08-31T07:14:10.448Z,780
2016-08-31T07:15:09.924Z,900
2016-08-31T07:16:10.393Z,865
2016-08-31T07:17:10.370Z,910
2016-08-31T07:18:08.264Z,910
2016-08-31T07:19:10.329Z,895
2016-08-31T07:20:08.919Z,895
2016-08-31T07:21:09.588Z,830
2016-08-31T07:22:10.956Z,715
2016-08-31T07:23:10.240Z,650
2016-08-31T07:24:09.518Z,595
2016-08-31T07:25:10.191Z,590
2016-08-31T07:26:10.169Z,615
2016-08-31T07:27:10.149Z,600
2016-08-31T07:28:09.426Z,580
2016-08-31T07:29:10.108Z,620
2016-08-31T07:30:11.115Z,580
2016-08-31T07:31:09.363Z,575
2016-08-31T07:32:07.948Z,625
2016-08-31T07:33:10.011Z,760
2016-08-31T07:34:09.285Z,860
2016-08-31T07:35:10.945Z,875
2016-08-31T07:36:09.957Z,940
2016-08-31T07:37:09.911Z,1080
2016-08-31T07:38:09.902Z,1250
2016-08-31T07:39:09.877Z,1330
2016-08-31T07:40:09.848Z,1375
2016-08-31T07:41:09.143Z,1440
2016-08-31T07:42:10.495Z,1495
2016-08-31T07:43:10.471Z,1530
2016-08-31T07:44:09.768Z,1490
2016-08-31T07:45:09.286Z,1490
2016-08-31T07:46:09.019Z,1490
2016-08-31T07:47:09.693Z,1470
2016-08-31T07:48:09.665Z,1505
2016-08-31T07:49:09.642Z,1510
2016-08-31T07:50:09.632Z,1535
2016-08-31T07:51:08.916Z,1495
2016-08-31T07:52:09.637Z,1450
2016-08-31T07:53:09.562Z,1480
2016-08-31T07:54:10.242Z,1510
2016-08-31T07:55:10.256Z,1630
2016-08-31T07:56:09.545Z,1660
2016-08-31T07:57:09.477Z,1630
2016-08-31T07:58:09.460Z,1680
2016-08-31T07:59:09.445Z,1520
2016-08-31T08:00:10.531Z,1730
2016-08-31T08:01:08.017Z,985
2016-08-31T08:02:07.994Z,1605
2016-08-31T08:03:08.114Z,1240
2016-08-31T08:04:07.279Z,775
2016-08-31T08:05:11.325Z,890
2016-08-31T08:06:07.287Z,1665
2016-08-31T08:07:07.306Z,1510
2016-08-31T08:08:07.206Z,1250
2016-08-31T08:09:09.951Z,760
2016-08-31T08:10:09.286Z,685
2016-08-31T08:11:09.894Z,725
2016-08-31T08:12:08.486Z,730
2016-08-31T08:13:09.860Z,710
2016-08-31T08:14:07.759Z,745
2016-08-31T08:15:07.732Z,695
2016-08-31T08:16:09.100Z,705
2016-08-31T08:17:09.111Z,710
2016-08-31T08:18:08.370Z,1030
2016-08-31T08:19:09.805Z,1915
2016-08-31T08:20:09.737Z,1310
2016-08-31T08:21:09.700Z,960
2016-08-31T08:22:07.583Z,1185
2016-08-31T08:23:07.565Z,1910
2016-08-31T08:24:08.931Z,1875
2016-08-31T08:25:08.936Z,1905
2016-08-31T08:26:08.900Z,1845
2016-08-31T08:27:08.875Z,1930
2016-08-31T08:28:08.859Z,1985
2016-08-31T08:29:08.134Z,1990
2016-08-31T08:30:09.512Z,1890
2016-08-31T08:31:08.787Z,1825
2016-08-31T08:32:08.765Z,1895
2016-08-31T08:33:08.746Z,1535
2016-08-31T08:34:08.732Z,1380
2016-08-31T08:35:09.005Z,1545
2016-08-31T08:36:08.697Z,1850
2016-08-31T08:37:08.676Z,1965
2016-08-31T08:38:09.355Z,1970
2016-08-31T08:39:07.502Z,2070
2016-08-31T08:40:08.032Z,2065
2016-08-31T08:41:07.904Z,2040
2016-08-31T08:42:08.584Z,2065
2016-08-31T08:43:07.164Z,2090
2016-08-31T08:44:09.240Z,2105
2016-08-31T08:45:09.214Z,2100
2016-08-31T08:46:07.112Z,2135
2016-08-31T08:47:09.220Z,2115
2016-08-31T08:48:08.462Z,2120
2016-08-31T08:49:09.149Z,2095
2016-08-31T08:50:07.738Z,2225
2016-08-31T08:51:09.117Z,2250
2016-08-31T08:52:08.417Z,2240
2016-08-31T08:53:08.374Z,2185
2016-08-31T08:54:07.668Z,2125
2016-08-31T08:55:09.339Z,2265
2016-08-31T08:56:08.330Z,2180
2016-08-31T08:57:06.923Z,2075
2016-08-31T08:58:08.989Z,2045
2016-08-31T08:59:07.692Z,2170
2016-08-31T09:00:08.513Z,2195
2016-08-31T09:01:07.557Z,2160
2016-08-31T09:02:08.321Z,2185
2016-08-31T09:03:09.100Z,2090
2016-08-31T09:04:08.204Z,2115
2016-08-31T09:05:07.493Z,2160
2016-08-31T09:06:08.877Z,2140
2016-08-31T09:07:07.486Z,2110
2016-08-31T09:08:08.157Z,2005
2016-08-31T09:09:08.139Z,2010
2016-08-31T09:10:07.975Z,2020
2016-08-31T09:11:08.112Z,2140
2016-08-31T09:12:08.093Z,2030
2016-08-31T09:13:08.207Z,2255
2016-08-31T09:14:08.057Z,2220
2016-08-31T09:15:08.735Z,2315
2016-08-31T09:16:07.326Z,2340
2016-08-31T09:17:08.719Z,2330
2016-08-31T09:18:08.696Z,2310
2016-08-31T09:19:07.986Z,2330
2016-08-31T09:20:07.976Z,2355
2016-08-31T09:21:08.008Z,2365
2016-08-31T09:22:08.642Z,2310
2016-08-31T09:23:06.536Z,2360
2016-08-31T09:24:07.919Z,2385
2016-08-31T09:25:07.209Z,2300
2016-08-31T09:26:07.940Z,2290
2016-08-31T09:27:08.577Z,2400
2016-08-31T09:28:08.571Z,2340
2016-08-31T09:29:07.278Z,2395
2016-08-31T09:30:07.849Z,2460
2016-08-31T09:31:07.836Z,2310
2016-08-31T09:32:05.722Z,2295
2016-08-31T09:33:07.796Z,2380
2016-08-31T09:34:07.789Z,2310
2016-08-31T09:35:09.121Z,2255
2016-08-31T09:36:07.757Z,2300
2016-08-31T09:37:07.074Z,2380
2016-08-31T09:38:07.038Z,2345
2016-08-31T09:39:06.334Z,2290
2016-08-31T09:40:08.138Z,2380
2016-08-31T09:41:08.385Z,2470
2016-08-31T09:42:06.277Z,2480
2016-08-31T09:43:06.263Z,2415
2016-08-31T09:44:06.952Z,2210
2016-08-31T09:45:08.401Z,2335
2016-08-31T09:46:07.618Z,2160
2016-08-31T09:47:06.206Z,2355
2016-08-31T09:48:08.284Z,2380
2016-08-31T09:49:08.282Z,2435
2016-08-31T09:50:07.566Z,2545
2016-08-31T09:51:08.308Z,2545
2016-08-31T09:52:07.537Z,2505
2016-08-31T09:53:07.518Z,2700
2016-08-31T09:54:06.116Z,2745
2016-08-31T09:55:08.054Z,2785
2016-08-31T09:56:08.177Z,2515
2016-08-31T09:57:08.166Z,1915
2016-08-31T09:58:08.159Z,1475
2016-08-31T09:59:08.140Z,855
2016-08-31T10:00:06.731Z,715
2016-08-31T10:01:07.419Z,1330
2016-08-31T10:02:07.397Z,1495
2016-08-31T10:03:06.692Z,1415
2016-08-31T10:04:05.975Z,1560
2016-08-31T10:05:06.660Z,880
2016-08-31T10:06:08.046Z,1040
2016-08-31T10:07:05.932Z,1635
2016-08-31T10:08:08.005Z,950
2016-08-31T10:09:07.990Z,1560
2016-08-31T10:10:06.615Z,1475
2016-08-31T10:11:07.263Z,1425
2016-08-31T10:12:06.680Z,1380
2016-08-31T10:13:07.937Z,1345
2016-08-31T10:14:07.222Z,1400
2016-08-31T10:15:07.903Z,1365
2016-08-31T10:16:07.190Z,1360
2016-08-31T10:17:06.478Z,1305
2016-08-31T10:18:07.853Z,1240
2016-08-31T10:19:06.442Z,1260
2016-08-31T10:20:06.681Z,1790
2016-08-31T10:21:07.111Z,2515
2016-08-31T10:22:06.408Z,2535
2016-08-31T10:23:07.780Z,2565
2016-08-31T10:24:06.378Z,2525
2016-08-31T10:25:07.764Z,2560
2016-08-31T10:26:06.340Z,2630
2016-08-31T10:27:07.022Z,2745
2016-08-31T10:28:07.706Z,2905
2016-08-31T10:29:06.299Z,2890
2016-08-31T10:30:05.751Z,2755
2016-08-31T10:31:06.275Z,2760
2016-08-31T10:32:06.951Z,2615
2016-08-31T10:33:07.673Z,2515
2016-08-31T10:34:06.931Z,2700
2016-08-31T10:35:06.905Z,2700
2016-08-31T10:36:06.270Z,2610
2016-08-31T10:37:05.489Z,2785
2016-08-31T10:38:06.939Z,2685
2016-08-31T10:39:07.341Z,2660
2016-08-31T10:40:06.154Z,2645
2016-08-31T10:41:06.912Z,2375
2016-08-31T10:42:06.807Z,2340
2016-08-31T10:43:06.788Z,2560
2016-08-31T10:44:06.779Z,2045
2016-08-31T10:45:06.769Z,860
2016-08-31T10:46:06.747Z,2580
2016-08-31T10:47:07.432Z,2470
2016-08-31T10:48:06.731Z,2450
2016-08-31T10:49:06.009Z,2410
2016-08-31T10:50:07.397Z,2175
2016-08-31T10:51:07.376Z,1060
2016-08-31T10:52:06.131Z,2350
2016-08-31T10:53:06.645Z,2110
2016-08-31T10:54:07.326Z,1300
2016-08-31T10:55:06.666Z,1035
2016-08-31T10:56:07.300Z,880
2016-08-31T10:57:05.189Z,885
2016-08-31T10:58:07.278Z,1065
2016-08-31T10:59:07.244Z,1115
2016-08-31T11:00:08.272Z,1055
2016-08-31T11:01:05.823Z,1025
2016-08-31T11:02:05.806Z,1055
2016-08-31T11:03:07.201Z,955
2016-08-31T11:04:07.321Z,800
2016-08-31T11:05:07.371Z,840
2016-08-31T11:06:05.772Z,850
2016-08-31T11:07:06.431Z,735
2016-08-31T11:08:07.108Z,735
2016-08-31T11:09:05.703Z,1055
2016-08-31T11:10:04.997Z,2105
2016-08-31T11:11:06.371Z,2390
2016-08-31T11:12:06.364Z,2330
2016-08-31T11:13:07.035Z,2345
2016-08-31T11:14:05.666Z,2105
2016-08-31T11:15:05.611Z,2265
2016-08-31T11:16:06.286Z,2140
2016-08-31T11:17:06.263Z,2100
2016-08-31T11:18:05.563Z,1795
2016-08-31T11:19:06.233Z,800
2016-08-31T11:20:06.292Z,525
2016-08-31T11:21:05.495Z,495
2016-08-31T11:22:06.196Z,485
2016-08-31T11:23:06.157Z,475
2016-08-31T11:24:06.143Z,460
2016-08-31T11:25:06.123Z,440
2016-08-31T11:26:06.101Z,430
2016-08-31T11:27:06.788Z,420
2016-08-31T11:28:06.761Z,420
2016-08-31T11:29:06.043Z,410
2016-08-31T11:30:06.825Z,400
2016-08-31T11:31:05.309Z,390
2016-08-31T11:32:05.986Z,380
2016-08-31T11:33:05.280Z,375
2016-08-31T11:34:05.250Z,370
2016-08-31T11:35:07.898Z,360
2016-08-31T11:36:05.910Z,345
2016-08-31T11:37:05.907Z,330
2016-08-31T11:38:05.872Z,320
2016-08-31T11:39:05.145Z,310
2016-08-31T11:40:05.827Z,305
2016-08-31T11:41:05.801Z,300
2016-08-31T11:42:05.773Z,300
2016-08-31T11:43:04.361Z,290
2016-08-31T11:44:05.781Z,280
2016-08-31T11:45:06.542Z,285
2016-08-31T11:46:05.009Z,285
2016-08-31T11:47:04.977Z,285
2016-08-31T11:48:04.283Z,285
2016-08-31T11:49:04.932Z,280
2016-08-31T11:50:05.701Z,275
2016-08-31T11:51:05.578Z,275
2016-08-31T11:52:04.870Z,280
2016-08-31T11:53:05.542Z,280
2016-08-31T11:54:05.511Z,280
2016-08-31T11:55:05.548Z,270
2016-08-31T11:56:05.560Z,255
2016-08-31T11:57:05.465Z,290
2016-08-31T11:58:04.727Z,275
2016-08-31T11:59:05.398Z,265
2016-08-31T12:00:05.376Z,285
2016-08-31T12:01:06.083Z,280
2016-08-31T12:02:05.334Z,275
2016-08-31T12:03:05.305Z,265
2016-08-31T12:04:04.585Z,250
2016-08-31T12:05:05.404Z,250
2016-08-31T12:06:03.837Z,245
2016-08-31T12:07:05.918Z,240
2016-08-31T12:08:05.878Z,240
2016-08-31T12:09:04.470Z,240
2016-08-31T12:10:06.144Z,240
2016-08-31T12:11:05.255Z,240
2016-08-31T12:12:04.388Z,245
2016-08-31T12:13:03.673Z,235
2016-08-31T12:14:05.038Z,235
2016-08-31T12:15:05.014Z,235
2016-08-31T12:16:04.294Z,230
2016-08-31T12:17:04.973Z,230
2016-08-31T12:18:04.949Z,220
2016-08-31T12:19:04.224Z,225
2016-08-31T12:20:04.890Z,225
2016-08-31T12:21:04.171Z,220
2016-08-31T12:22:04.873Z,220
2016-08-31T12:23:04.125Z,225
2016-08-31T12:24:04.796Z,215
2016-08-31T12:25:04.778Z,215
2016-08-31T12:26:03.376Z,215
2016-08-31T12:27:05.423Z,220
2016-08-31T12:28:04.713Z,220
2016-08-31T12:29:04.678Z,220
2016-08-31T12:30:05.575Z,220
2016-08-31T12:31:05.340Z,215
2016-08-31T12:32:04.597Z,215
2016-08-31T12:33:03.196Z,210
2016-08-31T12:34:03.293Z,210
2016-08-31T12:35:04.525Z,210
2016-08-31T12:36:03.878Z,205
2016-08-31T12:37:04.083Z,205
2016-08-31T12:38:03.796Z,205
2016-08-31T12:39:05.125Z,205
2016-08-31T12:40:05.540Z,205
2016-08-31T12:41:03.677Z,200
2016-08-31T12:42:04.355Z,200
2016-08-31T12:43:04.785Z,200
2016-08-31T12:44:05.061Z,200
2016-08-31T12:45:05.097Z,195
2016-08-31T12:46:03.555Z,195
2016-08-31T12:47:04.226Z,195
2016-08-31T12:48:03.499Z,195
2016-08-31T12:49:03.493Z,190
2016-08-31T12:50:04.857Z,190
2016-08-31T12:51:04.823Z,190
2016-08-31T12:52:04.102Z,190
2016-08-31T12:53:02.686Z,190
2016-08-31T12:54:04.077Z,190
2016-08-31T12:55:56.784Z,190
2016-08-31T12:56:08.187Z,190
2016-08-31T12:57:08.159Z,190
2016-08-31T12:58:07.440Z,185
2016-08-31T12:59:08.105Z,185
2016-08-31T13:00:08.139Z,185
2016-08-31T13:01:06.669Z,185
2016-08-31T13:02:08.042Z,185
2016-08-31T13:03:08.070Z,185
2016-08-31T13:04:06.593Z,185
2016-08-31T13:05:06.827Z,180
2016-08-31T13:06:08.628Z,180
2016-08-31T13:07:07.908Z,180
2016-08-31T13:08:07.939Z,180
2016-08-31T13:09:07.853Z,180
2016-08-31T13:10:07.831Z,175
2016-08-31T13:11:07.799Z,175
2016-08-31T13:12:07.781Z,180
2016-08-31T13:13:07.776Z,180
2016-08-31T13:14:07.030Z,170
2016-08-31T13:15:06.339Z,170
2016-08-31T13:16:08.369Z,170
2016-08-31T13:17:06.969Z,170
2016-08-31T13:18:08.324Z,170
2016-08-31T13:19:07.597Z,170
2016-08-31T13:20:08.606Z,170
2016-08-31T13:21:07.566Z,165
2016-08-31T13:22:06.827Z,165
2016-08-31T13:23:07.494Z,165
2016-08-31T13:24:08.164Z,165
2016-08-31T13:25:07.450Z,165
2016-08-31T13:26:06.722Z,165
2016-08-31T13:27:07.392Z,165
2016-08-31T13:28:08.070Z,160
2016-08-31T13:29:07.346Z,160
2016-08-31T13:30:06.768Z,160
2016-08-31T13:31:07.319Z,160
2016-08-31T13:32:07.271Z,160
2016-08-31T13:33:06.545Z,160
2016-08-31T13:34:05.832Z,160
2016-08-31T13:35:07.187Z,160
2016-08-31T13:36:07.166Z,155
2016-08-31T13:37:07.134Z,160
2016-08-31T13:38:07.125Z,160
2016-08-31T13:39:07.095Z,160
2016-08-31T13:40:07.763Z,155
2016-08-31T13:41:07.755Z,155
2016-08-31T13:42:06.318Z,155
2016-08-31T13:43:06.292Z,155
2016-08-31T13:44:06.286Z,155
2016-08-31T13:45:08.220Z,155
2016-08-31T13:46:06.211Z,150
2016-08-31T13:47:06.191Z,150
2016-08-31T13:48:06.170Z,150
2016-08-31T13:49:07.526Z,150
2016-08-31T13:50:06.816Z,150
2016-08-31T13:51:06.086Z,150
2016-08-31T13:52:06.758Z,150
2016-08-31T13:53:06.736Z,150
2016-08-31T13:54:07.401Z,150
2016-08-31T13:55:05.982Z,150
2016-08-31T13:56:06.658Z,150
2016-08-31T13:57:06.630Z,145
2016-08-31T13:58:07.322Z,145
2016-08-31T13:59:06.584Z,145
2016-08-31T14:00:07.266Z,145
2016-08-31T14:01:05.836Z,145